TimeEDT,TemperatureF,Dew PointF,Humidity,Sea Level PressureIn,VisibilityMPH,Wind Direction,Wind SpeedMPH,Gust SpeedMPH,PrecipitationIn,Events,Conditions,WindDirDegrees,DateUTC
12:35 AM,51.8,50.0,94,29.52,3.0,ENE,9.2,-,N/A,,Overcast,60,2013-06-12 04:35:00
12:55 AM,51.8,51.8,100,29.51,3.0,NE,6.9,16.1,N/A,,Overcast,50,2013-06-12 04:55:00
1:15 AM,51.8,51.8,100,29.51,3.0,ENE,10.4,-,N/A,,Overcast,70,2013-06-12 05:15:00
1:35 AM,51.8,51.8,100,29.50,2.5,ENE,10.4,-,N/A,,Overcast,60,2013-06-12 05:35:00
1:55 AM,51.8,51.8,100,29.50,2.5,ENE,6.9,-,N/A,,Overcast,70,2013-06-12 05:55:00
2:15 AM,51.8,51.8,100,29.50,1.8,ENE,8.1,-,N/A,,Overcast,60,2013-06-12 06:15:00
2:35 AM,51.8,50.0,94,29.49,2.5,NE,6.9,-,N/A,,Overcast,50,2013-06-12 06:35:00
3:15 AM,51.8,51.8,100,29.49,10.0,NE,5.8,-,N/A,,Overcast,40,2013-06-12 07:15:00
3:35 AM,51.8,51.8,100,29.49,7.0,NE,5.8,-,N/A,,Overcast,50,2013-06-12 07:35:00
3:55 AM,51.8,51.8,100,29.47,3.0,NE,8.1,-,N/A,,Overcast,40,2013-06-12 07:55:00
4:15 AM,51.8,51.8,100,29.47,7.0,NE,8.1,-,N/A,,Overcast,40,2013-06-12 08:15:00
4:35 AM,51.8,51.8,100,29.47,10.0,NNE,5.8,-,N/A,,Overcast,30,2013-06-12 08:35:00
4:55 AM,51.8,51.8,100,29.48,10.0,NNE,6.9,-,N/A,,Overcast,20,2013-06-12 08:55:00
5:15 AM,51.8,51.8,100,29.48,10.0,NE,4.6,-,N/A,,Overcast,40,2013-06-12 09:15:00
5:36 AM,53.6,53.6,100,29.48,10.0,NNE,5.8,-,N/A,,Overcast,20,2013-06-12 09:36:00
5:55 AM,53.6,53.6,100,29.49,10.0,North,3.5,-,N/A,,Overcast,360,2013-06-12 09:55:00
6:15 AM,53.6,53.6,100,29.49,9.0,NE,5.8,-,N/A,,Overcast,40,2013-06-12 10:15:00
6:35 AM,53.6,53.6,100,29.49,1.8,NE,3.5,-,N/A,,Overcast,40,2013-06-12 10:35:00
6:55 AM,53.6,51.8,94,29.49,3.0,NNE,5.8,-,N/A,,Overcast,20,2013-06-12 10:55:00
7:15 AM,53.6,51.8,94,29.50,3.0,North,5.8,-,N/A,,Overcast,10,2013-06-12 11:15:00
7:35 AM,53.6,51.8,94,29.50,3.0,NNE,6.9,-,N/A,,Overcast,20,2013-06-12 11:35:00
7:55 AM,53.6,51.8,94,29.50,2.0,NNE,9.2,-,N/A,,Overcast,20,2013-06-12 11:55:00
8:15 AM,53.6,53.6,100,29.50,3.0,NNE,9.2,-,N/A,,Overcast,20,2013-06-12 12:15:00
8:35 AM,53.6,53.6,100,29.50,2.5,NNE,8.1,-,N/A,,Overcast,20,2013-06-12 12:35:00
8:55 AM,53.6,53.6,100,29.51,2.5,NNE,8.1,-,N/A,,Overcast,20,2013-06-12 12:55:00
9:15 AM,53.6,53.6,100,29.51,4.0,North,5.8,-,N/A,,Overcast,10,2013-06-12 13:15:00
9:35 AM,55.4,55.4,100,29.51,3.0,NNE,5.8,-,N/A,,Overcast,20,2013-06-12 13:35:00
9:55 AM,55.4,55.4,100,29.51,2.5,NNE,10.4,-,N/A,,Overcast,20,2013-06-12 13:55:00
10:15 AM,55.4,55.4,100,29.51,2.5,North,6.9,-,N/A,,Overcast,10,2013-06-12 14:15:00
10:35 AM,55.4,53.6,94,29.51,4.0,North,8.1,-,N/A,,Overcast,10,2013-06-12 14:35:00
10:55 AM,55.4,55.4,100,29.52,5.0,North,9.2,-,N/A,,Overcast,10,2013-06-12 14:55:00
11:15 AM,55.4,53.6,94,29.52,6.0,North,9.2,-,N/A,,Overcast,10,2013-06-12 15:15:00
11:35 AM,55.4,55.4,100,29.52,8.0,NNE,9.2,-,N/A,,Overcast,20,2013-06-12 15:35:00
11:56 AM,55.4,55.4,100,29.52,3.0,North,9.2,-,N/A,,Overcast,10,2013-06-12 15:56:00
12:15 PM,57.2,55.4,94,29.53,4.0,NNE,11.5,-,N/A,,Overcast,20,2013-06-12 16:15:00
12:35 PM,57.2,57.2,100,29.53,5.0,North,8.1,-,N/A,,Overcast,360,2013-06-12 16:35:00
12:55 PM,57.2,57.2,100,29.53,4.0,North,9.2,-,N/A,,Overcast,10,2013-06-12 16:55:00
1:15 PM,57.2,57.2,100,29.53,5.0,NNE,11.5,17.3,N/A,,Overcast,20,2013-06-12 17:15:00
1:35 PM,57.2,57.2,100,29.54,4.0,North,10.4,-,N/A,,Overcast,360,2013-06-12 17:35:00
1:55 PM,57.2,57.2,100,29.54,7.0,North,10.4,17.3,N/A,,Overcast,10,2013-06-12 17:55:00
2:15 PM,57.2,57.2,100,29.54,10.0,North,11.5,18.4,N/A,,Overcast,360,2013-06-12 18:15:00
2:36 PM,57.2,57.2,100,29.55,10.0,North,11.5,18.4,N/A,,Overcast,10,2013-06-12 18:36:00
2:55 PM,57.2,57.2,100,29.55,10.0,North,15.0,20.7,N/A,,Overcast,10,2013-06-12 18:55:00
3:15 PM,57.2,57.2,100,29.56,10.0,North,10.4,19.6,N/A,,Overcast,10,2013-06-12 19:15:00
3:35 PM,57.2,57.2,100,29.56,10.0,North,11.5,16.1,N/A,,Overcast,360,2013-06-12 19:35:00
3:55 PM,57.2,57.2,100,29.57,10.0,North,12.7,17.3,N/A,,Overcast,10,2013-06-12 19:55:00
4:15 PM,57.2,55.4,94,29.57,10.0,North,12.7,17.3,N/A,,Overcast,10,2013-06-12 20:15:00
4:35 PM,57.2,55.4,94,29.58,10.0,North,15.0,18.4,N/A,,Overcast,10,2013-06-12 20:35:00
4:55 PM,59.0,55.4,88,29.58,10.0,North,15.0,25.3,N/A,,Overcast,10,2013-06-12 20:55:00
5:15 PM,57.2,57.2,100,29.59,4.0,North,13.8,18.4,N/A,,Overcast,10,2013-06-12 21:15:00
5:35 PM,57.2,57.2,100,29.59,10.0,North,11.5,20.7,N/A,,Overcast,10,2013-06-12 21:35:00
5:55 PM,57.2,55.4,94,29.60,10.0,North,10.4,19.6,N/A,,Overcast,360,2013-06-12 21:55:00
6:15 PM,57.2,55.4,94,29.61,5.0,North,8.1,16.1,N/A,,Overcast,360,2013-06-12 22:15:00
6:35 PM,57.2,55.4,94,29.62,7.0,North,11.5,-,N/A,,Overcast,360,2013-06-12 22:35:00
6:55 PM,57.2,55.4,94,29.63,5.0,North,11.5,18.4,N/A,,Overcast,10,2013-06-12 22:55:00
7:15 PM,57.2,55.4,94,29.63,5.0,North,9.2,18.4,N/A,,Overcast,360,2013-06-12 23:15:00
7:35 PM,57.2,55.4,94,29.64,9.0,North,13.8,18.4,N/A,,Overcast,10,2013-06-12 23:35:00
7:55 PM,55.4,53.6,94,29.64,10.0,North,11.5,19.6,N/A,,Overcast,10,2013-06-12 23:55:00
8:15 PM,55.4,53.6,94,29.65,8.0,North,8.1,-,N/A,,Overcast,360,2013-06-13 00:15:00
8:35 PM,55.4,55.4,100,29.66,5.0,North,10.4,18.4,N/A,,Overcast,360,2013-06-13 00:35:00
8:55 PM,55.4,55.4,100,29.66,9.0,North,12.7,-,N/A,,Overcast,360,2013-06-13 00:55:00
9:15 PM,55.4,55.4,100,29.67,10.0,North,9.2,17.3,N/A,,Overcast,360,2013-06-13 01:15:00
9:35 PM,55.4,55.4,100,29.67,5.0,North,10.4,-,N/A,,Overcast,360,2013-06-13 01:35:00
9:55 PM,55.4,55.4,100,29.68,7.0,North,8.1,-,N/A,,Overcast,360,2013-06-13 01:55:00
10:15 PM,55.4,53.6,94,29.68,10.0,North,9.2,-,N/A,,Overcast,360,2013-06-13 02:15:00
10:35 PM,55.4,53.6,94,29.69,10.0,North,8.1,-,N/A,,Overcast,360,2013-06-13 02:35:00
10:55 PM,55.4,53.6,94,29.69,10.0,North,9.2,17.3,N/A,,Overcast,360,2013-06-13 02:55:00
11:15 PM,55.4,53.6,94,29.70,9.0,North,9.2,18.4,N/A,,Overcast,360,2013-06-13 03:15:00
11:35 PM,53.6,53.6,100,29.70,5.0,North,11.5,17.3,N/A,,Overcast,360,2013-06-13 03:35:00
11:55 PM,53.6,51.8,94,29.70,3.0,North,10.4,-,N/A,,Overcast,360,2013-06-13 03:55:00